createdAt,value
2023-11-23T00:00:32.689Z,3.30
2023-11-23T00:03:21.348Z,4.90
2023-11-23T00:05:49.354Z,5.50
2023-11-23T00:08:17.525Z,3.20
2023-11-23T00:10:45.529Z,4.10
2023-11-23T00:13:13.454Z,5.00
2023-11-23T00:15:41.526Z,5.70
2023-11-23T00:18:09.682Z,4.60
2023-11-23T00:20:37.725Z,8.10
2023-11-23T00:23:05.874Z,14.70
2023-11-23T00:25:34.702Z,5.00
2023-11-23T00:30:32.709Z,3.60
2023-11-23T00:33:01.236Z,5.00
2023-11-23T00:35:29.356Z,5.70
2023-11-23T00:37:57.435Z,4.20
2023-11-23T00:40:25.297Z,6.60
2023-11-23T00:42:53.280Z,4.50
2023-11-23T00:45:21.503Z,4.60
2023-11-23T00:47:49.393Z,4.70
2023-11-23T00:50:17.574Z,4.40
2023-11-23T00:52:46.384Z,6.70
2023-11-23T00:55:15.264Z,5.30
2023-11-23T00:57:43.476Z,4.60
2023-11-23T01:00:12.515Z,5.80
2023-11-23T01:02:40.807Z,5.80
2023-11-23T01:05:10.663Z,5.90
2023-11-23T01:07:39.459Z,5.50
2023-11-23T01:10:08.346Z,5.10
2023-11-23T01:12:36.206Z,4.20
2023-11-23T01:15:05.402Z,3.00
2023-11-23T01:17:34.504Z,4.50
2023-11-23T01:20:06.677Z,3.30
2023-11-23T01:22:35.652Z,4.40
2023-11-23T01:25:09.826Z,4.10
2023-11-23T01:27:38.669Z,3.50
2023-11-23T01:30:07.682Z,4.70
2023-11-23T01:32:35.857Z,3.70
2023-11-23T01:35:05.610Z,3.60
2023-11-23T01:37:36.846Z,3.90
2023-11-23T01:40:06.337Z,3.30
2023-11-23T01:42:35.649Z,2.70
2023-11-23T01:45:04.722Z,3.00
2023-11-23T01:47:38.138Z,6.00
2023-11-23T01:50:07.990Z,3.80
2023-11-23T01:52:37.091Z,3.70
2023-11-23T01:55:05.968Z,3.00
2023-11-23T01:57:42.053Z,3.60
2023-11-23T02:00:11.065Z,4.00
2023-11-23T02:02:40.019Z,5.20
2023-11-23T02:05:10.999Z,3.40
2023-11-23T02:07:40.199Z,5.30
2023-11-23T02:10:09.916Z,5.40
2023-11-23T02:12:39.075Z,2.90
2023-11-23T02:15:08.966Z,4.40
2023-11-23T02:17:37.239Z,3.10
2023-11-23T02:20:10.366Z,3.90
2023-11-23T02:22:39.039Z,2.60
2023-11-23T02:25:08.165Z,3.10
2023-11-23T02:27:36.569Z,4.40
2023-11-23T02:30:08.493Z,4.70
2023-11-23T02:32:36.642Z,3.40
2023-11-23T02:35:05.532Z,5.00
2023-11-23T02:37:34.813Z,3.60
2023-11-23T02:40:03.599Z,7.00
2023-11-23T02:42:31.888Z,4.70
2023-11-23T02:45:00.906Z,4.10
2023-11-23T02:47:29.043Z,5.70
2023-11-23T02:49:57.318Z,3.00
2023-11-23T02:52:26.262Z,4.70
2023-11-23T02:54:54.383Z,3.40
2023-11-23T02:57:22.484Z,3.20
2023-11-23T02:59:51.166Z,4.80
2023-11-23T03:02:22.589Z,3.70
2023-11-23T03:04:50.927Z,3.50
2023-11-23T03:07:19.125Z,3.50
2023-11-23T03:09:47.522Z,4.10
2023-11-23T03:12:15.700Z,5.40
2023-11-23T03:14:43.938Z,3.10
2023-11-23T03:17:12.425Z,3.20
2023-11-23T03:19:40.422Z,4.20
2023-11-23T03:22:09.059Z,3.70
2023-11-23T03:24:37.227Z,4.70
2023-11-23T03:27:06.032Z,3.50
2023-11-23T03:29:34.998Z,4.50
2023-11-23T03:32:04.462Z,4.60
2023-11-23T03:34:33.812Z,3.60
2023-11-23T03:37:01.885Z,3.30
2023-11-23T03:39:31.805Z,4.40
2023-11-23T03:42:03.102Z,6.50
2023-11-23T03:44:31.428Z,3.30
2023-11-23T03:47:00.242Z,5.50
2023-11-23T03:49:28.167Z,3.50
2023-11-23T03:51:56.285Z,6.20
2023-11-23T03:54:25.130Z,5.70
2023-11-23T03:59:21.633Z,4.60
2023-11-23T04:01:49.822Z,5.30
2023-11-23T04:04:18.063Z,7.70
2023-11-23T04:06:47.033Z,7.30
2023-11-23T04:09:15.071Z,4.30
2023-11-23T04:11:42.968Z,3.70
2023-11-23T04:14:11.657Z,5.10
2023-11-23T04:16:39.966Z,4.60
2023-11-23T04:19:08.264Z,6.50
2023-11-23T04:21:36.420Z,5.10
2023-11-23T04:24:04.824Z,4.10
2023-11-23T04:26:33.996Z,6.50
2023-11-23T04:29:02.041Z,3.90
2023-11-23T04:31:31.361Z,4.00
2023-11-23T04:34:00.168Z,4.90
2023-11-23T04:36:31.349Z,4.20
2023-11-23T04:39:00.391Z,5.40
2023-11-23T04:41:28.459Z,3.30
2023-11-23T04:43:57.192Z,4.30
2023-11-23T04:46:25.611Z,4.80
2023-11-23T04:48:53.491Z,4.60
2023-11-23T04:51:21.610Z,6.20
2023-11-23T04:53:49.755Z,3.80
2023-11-23T04:56:19.155Z,5.80
2023-11-23T04:58:47.212Z,4.90
2023-11-23T05:01:15.473Z,4.60
2023-11-23T05:03:43.796Z,4.20
2023-11-23T05:06:13.135Z,4.60
2023-11-23T05:08:41.493Z,5.60
2023-11-23T05:11:09.450Z,4.20
2023-11-23T05:13:37.586Z,2.50
2023-11-23T05:16:07.611Z,4.10
2023-11-23T05:18:35.714Z,5.20
2023-11-23T05:21:05.686Z,6.00
2023-11-23T05:23:34.774Z,5.00
2023-11-23T05:26:04.441Z,5.60
2023-11-23T05:28:32.976Z,3.60
2023-11-23T05:31:01.057Z,2.70
2023-11-23T05:33:29.943Z,6.50
2023-11-23T05:35:58.067Z,4.00
2023-11-23T05:38:26.183Z,3.60
2023-11-23T05:40:55.059Z,6.10
2023-11-23T05:43:23.539Z,4.60
2023-11-23T05:45:51.711Z,4.80
2023-11-23T05:48:19.780Z,3.10
2023-11-23T05:50:48.059Z,4.60
2023-11-23T05:53:16.226Z,4.90
2023-11-23T05:55:44.101Z,4.40
2023-11-23T05:58:12.070Z,4.60
2023-11-23T06:00:40.133Z,2.80
2023-11-23T06:03:08.164Z,4.90
2023-11-23T06:05:37.174Z,3.30
2023-11-23T06:08:05.842Z,3.90
2023-11-23T06:10:34.527Z,4.10
2023-11-23T06:13:03.424Z,4.10
2023-11-23T06:15:31.582Z,3.40
2023-11-23T06:18:10.720Z,3.90
2023-11-23T06:20:42.081Z,4.20
2023-11-23T06:23:11.380Z,3.70
2023-11-23T06:25:40.564Z,6.00
2023-11-23T06:28:14.977Z,3.60
2023-11-23T06:30:46.475Z,4.80
2023-11-23T06:33:15.292Z,3.70
2023-11-23T06:35:43.920Z,5.10
2023-11-23T06:38:13.225Z,5.00
2023-11-23T06:40:41.322Z,3.80
2023-11-23T06:43:09.817Z,5.20
2023-11-23T06:45:38.646Z,3.60
2023-11-23T06:48:07.544Z,3.60
2023-11-23T06:50:36.016Z,3.30
2023-11-23T06:53:04.502Z,3.20
2023-11-23T06:55:33.439Z,4.50
2023-11-23T06:58:03.261Z,5.40
2023-11-23T07:00:31.248Z,3.20
2023-11-23T07:05:30.633Z,4.90
2023-11-23T07:07:59.223Z,5.90
2023-11-23T07:10:28.189Z,3.90
2023-11-23T07:15:26.323Z,5.70
2023-11-23T07:17:54.963Z,4.70
2023-11-23T07:20:23.750Z,3.60
2023-11-23T07:22:51.799Z,4.80
2023-11-23T07:25:20.630Z,4.50
2023-11-23T07:27:50.176Z,4.40
2023-11-23T07:30:18.243Z,4.10
2023-11-23T07:32:46.310Z,4.70
2023-11-23T07:35:14.651Z,5.00
2023-11-23T07:37:43.599Z,4.20
2023-11-23T07:42:44.994Z,4.10
2023-11-23T07:45:13.766Z,4.20
2023-11-23T07:47:43.365Z,3.70
2023-11-23T07:50:12.745Z,6.50
2023-11-23T07:55:11.596Z,4.50
2023-11-23T07:57:40.584Z,6.00
2023-11-23T08:00:09.704Z,5.20
2023-11-23T08:02:38.114Z,4.60
2023-11-23T08:05:07.013Z,3.90
2023-11-23T08:07:35.030Z,5.00
2023-11-23T08:10:07.297Z,2.90
2023-11-23T08:12:35.556Z,3.40
2023-11-23T08:15:06.283Z,7.50
2023-11-23T08:17:34.754Z,7.20
2023-11-23T08:20:08.423Z,7.80
2023-11-23T08:22:42.304Z,6.00
2023-11-23T08:25:10.411Z,8.50
2023-11-23T08:27:39.424Z,7.50
2023-11-23T08:30:08.506Z,4.90
2023-11-23T08:32:36.502Z,5.20
2023-11-23T08:35:05.178Z,5.90
2023-11-23T08:37:34.059Z,5.00
2023-11-23T08:42:30.755Z,4.60
2023-11-23T08:44:59.558Z,3.80
2023-11-23T08:47:27.859Z,6.40
2023-11-23T08:49:56.846Z,4.90
2023-11-23T08:54:53.312Z,4.10
2023-11-23T08:57:21.369Z,4.70
2023-11-23T08:59:49.406Z,2.90
2023-11-23T09:02:20.850Z,4.20
2023-11-23T09:04:50.377Z,4.60
2023-11-23T09:07:21.631Z,5.40
2023-11-23T09:09:50.389Z,5.00
2023-11-23T09:12:18.544Z,3.60
2023-11-23T09:14:49.563Z,6.20
2023-11-23T09:17:18.865Z,4.30
2023-11-23T09:19:48.356Z,4.10
2023-11-23T09:22:16.958Z,142.00
2023-11-23T09:24:45.262Z,316.20
2023-11-23T09:27:14.550Z,281.00
2023-11-23T09:29:43.009Z,364.30
2023-11-23T09:32:11.280Z,271.90
2023-11-23T09:34:41.634Z,533.10
2023-11-23T09:37:10.028Z,159.00
2023-11-23T09:39:38.417Z,47.00
2023-11-23T09:42:09.378Z,36.40
2023-11-23T09:44:37.628Z,26.50
2023-11-23T09:49:36.665Z,27.30
2023-11-23T09:52:06.441Z,35.00
2023-11-23T09:54:34.687Z,46.80
2023-11-23T09:57:05.846Z,47.20
2023-11-23T09:59:34.529Z,38.40
2023-11-23T10:02:06.432Z,23.80
2023-11-23T10:04:35.374Z,25.50
2023-11-23T10:07:07.415Z,27.10
2023-11-23T10:09:36.772Z,27.40
2023-11-23T10:12:04.970Z,19.90
2023-11-23T10:14:34.745Z,22.10
2023-11-23T10:17:03.743Z,26.30
2023-11-23T10:19:32.474Z,16.20
2023-11-23T10:22:03.319Z,16.40
2023-11-23T10:24:33.036Z,16.20
2023-11-23T10:27:01.116Z,24.70
2023-11-23T10:29:31.164Z,16.60
2023-11-23T10:32:02.668Z,16.30
2023-11-23T10:34:33.692Z,14.20
2023-11-23T10:37:03.198Z,16.00
2023-11-23T10:39:33.424Z,12.30
2023-11-23T10:42:03.623Z,19.60
2023-11-23T10:44:34.015Z,9.70
2023-11-23T10:47:06.490Z,12.10
2023-11-23T10:49:36.466Z,9.30
2023-11-23T10:52:07.286Z,9.10
2023-11-23T10:54:35.249Z,6.30
2023-11-23T10:57:08.758Z,5.70
2023-11-23T10:59:38.834Z,5.70
2023-11-23T11:02:08.819Z,6.30
2023-11-23T11:04:38.542Z,7.30
2023-11-23T11:07:12.157Z,5.40
2023-11-23T11:09:40.440Z,5.20
2023-11-23T11:12:14.444Z,5.90
2023-11-23T11:14:52.129Z,5.20
2023-11-23T11:17:20.177Z,5.30
2023-11-23T11:19:51.651Z,4.70
2023-11-23T11:22:19.832Z,6.40
2023-11-23T11:24:58.948Z,14.90
2023-11-23T11:27:32.194Z,29.60
2023-11-23T11:30:04.815Z,56.10
2023-11-23T11:32:36.829Z,74.80
2023-11-23T11:35:08.692Z,50.60
2023-11-23T11:37:41.010Z,47.20
2023-11-23T11:40:12.771Z,32.80
2023-11-23T11:42:42.066Z,43.80
2023-11-23T11:45:13.986Z,66.00
2023-11-23T11:47:42.775Z,21.60
2023-11-23T11:50:14.142Z,132.40
2023-11-23T11:52:42.456Z,58.70
2023-11-23T11:55:10.470Z,132.30
2023-11-23T11:57:42.112Z,91.60
2023-11-23T12:00:11.368Z,48.90
2023-11-23T12:02:39.614Z,93.60
2023-11-23T12:05:12.334Z,31.00
2023-11-23T12:07:40.592Z,111.20
2023-11-23T12:10:08.951Z,142.00
2023-11-23T12:12:49.077Z,83.50
2023-11-23T12:15:21.275Z,94.40
2023-11-23T12:17:51.386Z,44.80
2023-11-23T12:20:19.540Z,38.20
2023-11-23T12:22:47.600Z,24.30
2023-11-23T12:25:19.652Z,23.70
2023-11-23T12:27:50.956Z,38.90
2023-11-23T12:30:19.100Z,24.40
2023-11-23T12:32:48.769Z,9.80
2023-11-23T12:35:16.895Z,30.80
2023-11-23T12:37:45.303Z,17.40
2023-11-23T12:40:14.147Z,9.00
2023-11-23T12:42:42.437Z,43.30
2023-11-23T12:45:11.075Z,28.60
2023-11-23T12:47:39.382Z,49.10
2023-11-23T12:50:11.683Z,49.50
2023-11-23T12:52:40.674Z,51.80
2023-11-23T12:55:10.395Z,46.00
2023-11-23T12:57:38.991Z,32.60
2023-11-23T13:00:08.463Z,41.20
2023-11-23T13:02:36.406Z,28.10
2023-11-23T13:05:05.556Z,20.70
2023-11-23T13:07:36.641Z,15.70
2023-11-23T13:10:07.013Z,19.30
2023-11-23T13:12:35.622Z,28.90
2023-11-23T13:15:06.004Z,15.60
2023-11-23T13:17:35.310Z,17.50
2023-11-23T13:20:10.453Z,27.50
2023-11-23T13:22:38.835Z,19.30
2023-11-23T13:25:07.372Z,22.70
2023-11-23T13:27:36.287Z,25.50
2023-11-23T13:30:05.805Z,17.70
2023-11-23T13:32:34.528Z,14.10
2023-11-23T13:35:04.603Z,9.20
2023-11-23T13:37:34.737Z,13.50
2023-11-23T13:40:08.304Z,13.90
2023-11-23T13:42:37.254Z,10.90
2023-11-23T13:45:08.808Z,14.40
2023-11-23T13:47:38.060Z,12.10
2023-11-23T13:50:14.694Z,10.80
2023-11-23T13:52:42.878Z,12.20
2023-11-23T13:55:10.976Z,14.40
2023-11-23T13:57:39.248Z,14.30
2023-11-23T14:04:22.819Z,8.50
2023-11-23T14:06:51.255Z,10.10
2023-11-23T14:09:20.330Z,11.10
2023-11-23T14:11:55.606Z,12.80
2023-11-23T14:14:23.808Z,14.10
2023-11-23T14:16:52.103Z,22.30
2023-11-23T14:19:22.234Z,11.30
2023-11-23T14:21:55.421Z,9.00
2023-11-23T14:24:23.755Z,11.10
2023-11-23T14:26:54.070Z,11.80
2023-11-23T14:29:22.346Z,8.20
2023-11-23T14:31:53.102Z,10.20
2023-11-23T14:34:23.354Z,9.40
2023-11-23T14:36:56.028Z,8.00
2023-11-23T14:39:28.750Z,15.40
2023-11-23T14:41:58.197Z,7.50
2023-11-23T14:44:26.894Z,15.70
2023-11-23T14:49:24.099Z,27.10
2023-11-23T14:51:54.615Z,48.10
2023-11-23T14:54:31.808Z,102.50
2023-11-23T14:57:08.479Z,151.10
2023-11-23T14:59:37.642Z,209.40
2023-11-23T15:02:08.168Z,141.10
2023-11-23T15:04:37.651Z,149.40
2023-11-23T15:07:07.562Z,77.50
2023-11-23T15:09:36.667Z,67.00
2023-11-23T15:12:07.818Z,78.40
2023-11-23T15:14:37.528Z,80.70
2023-11-23T15:17:07.047Z,76.20
2023-11-23T15:19:36.523Z,49.20
2023-11-23T15:22:08.711Z,30.10
2023-11-23T15:24:38.603Z,33.90
2023-11-23T15:27:09.025Z,13.30
2023-11-23T15:29:37.979Z,52.70
2023-11-23T15:32:12.898Z,37.20
2023-11-23T15:34:41.820Z,37.80
2023-11-23T15:37:12.439Z,63.20
2023-11-23T15:39:41.688Z,68.60
2023-11-23T15:42:13.628Z,67.50
2023-11-23T15:44:42.822Z,88.60
2023-11-23T15:47:12.153Z,78.60
2023-11-23T15:49:40.405Z,69.60
2023-11-23T15:52:09.479Z,67.50
2023-11-23T15:54:37.860Z,38.70
2023-11-23T15:57:06.995Z,78.20
2023-11-23T15:59:37.296Z,94.10
2023-11-23T16:02:06.352Z,83.70
2023-11-23T16:04:36.420Z,107.60
2023-11-23T16:07:05.512Z,66.90
2023-11-23T16:09:33.684Z,50.30
2023-11-23T16:12:02.619Z,96.50
2023-11-23T16:14:30.861Z,85.40
2023-11-23T16:17:00.430Z,55.10
2023-11-23T16:19:29.793Z,63.10
2023-11-23T16:21:58.283Z,41.40
2023-11-23T16:24:26.529Z,26.70
2023-11-23T16:26:55.804Z,31.20
2023-11-23T16:29:24.644Z,16.90
2023-11-23T16:31:52.789Z,14.70
2023-11-23T16:34:21.134Z,12.00
2023-11-23T16:36:49.843Z,10.60
2023-11-23T16:41:49.479Z,12.60
2023-11-23T16:44:17.809Z,29.20
2023-11-23T16:46:47.118Z,29.50
2023-11-23T16:49:15.708Z,41.60
2023-11-23T16:51:44.321Z,20.30
2023-11-23T16:54:12.708Z,17.30
2023-11-23T16:56:40.691Z,18.10
2023-11-23T16:59:11.728Z,23.20
2023-11-23T17:01:41.238Z,29.00
2023-11-23T17:04:10.066Z,24.50
2023-11-23T17:06:40.888Z,28.30
2023-11-23T17:09:11.319Z,33.40
2023-11-23T17:11:40.397Z,41.50
2023-11-23T17:14:11.805Z,40.40
2023-11-23T17:16:41.861Z,26.80
2023-11-23T17:19:13.920Z,12.10
2023-11-23T17:21:47.151Z,14.20
2023-11-23T17:24:16.452Z,10.30
2023-11-23T17:26:45.144Z,10.20
2023-11-23T17:29:13.431Z,24.20
2023-11-23T17:31:43.234Z,27.40
2023-11-23T17:34:13.410Z,17.50
2023-11-23T17:36:41.866Z,13.00
2023-11-23T17:39:17.066Z,10.10
2023-11-23T17:41:46.644Z,7.30
2023-11-23T17:44:15.888Z,17.90
2023-11-23T17:46:47.026Z,9.70
2023-11-23T17:49:16.778Z,8.40
2023-11-23T17:51:46.011Z,11.90
2023-11-23T17:54:16.296Z,26.90
2023-11-23T17:56:44.681Z,13.20
2023-11-23T17:59:25.646Z,14.90
2023-11-23T18:02:05.900Z,7.10
2023-11-23T18:04:34.750Z,17.90
2023-11-23T18:07:03.189Z,23.80
2023-11-23T18:12:06.683Z,7.60
2023-11-23T18:14:35.735Z,7.10
2023-11-23T18:19:36.264Z,5.00
2023-11-23T18:22:06.070Z,3.50
2023-11-23T18:24:35.485Z,4.60
2023-11-23T18:27:06.328Z,6.20
2023-11-23T18:29:36.935Z,5.50
2023-11-23T18:32:06.789Z,3.90
2023-11-23T18:34:36.268Z,4.20
2023-11-23T18:37:05.225Z,4.30
2023-11-23T18:42:02.668Z,2.60
2023-11-23T18:44:33.668Z,3.60
2023-11-23T18:47:06.260Z,3.30
2023-11-23T18:49:35.237Z,3.00
2023-11-23T18:52:06.110Z,4.00
2023-11-23T18:54:34.835Z,4.70
2023-11-23T18:57:03.418Z,4.10
2023-11-23T18:59:32.532Z,8.00
2023-11-23T19:02:01.724Z,5.90
2023-11-23T19:04:30.236Z,4.50
2023-11-23T19:06:58.803Z,5.90
2023-11-23T19:09:28.852Z,7.30
2023-11-23T19:11:57.982Z,6.30
2023-11-23T19:14:27.258Z,7.10
2023-11-23T19:16:55.947Z,3.90
2023-11-23T19:19:24.878Z,4.30
2023-11-23T19:21:53.578Z,4.60
2023-11-23T19:24:22.396Z,3.40
2023-11-23T19:29:23.628Z,3.80
2023-11-23T19:31:56.807Z,3.70
2023-11-23T19:34:26.067Z,3.80
2023-11-23T19:36:55.590Z,4.60
2023-11-23T19:39:25.181Z,4.20
2023-11-23T19:41:55.023Z,5.40
2023-11-23T19:44:23.977Z,5.90
2023-11-23T19:49:22.461Z,7.40
2023-11-23T19:51:51.684Z,4.20
2023-11-23T19:54:21.338Z,3.50
2023-11-23T19:56:50.623Z,4.20
2023-11-23T19:59:21.353Z,3.10
2023-11-23T20:01:49.644Z,4.40
2023-11-23T20:04:18.402Z,5.90
2023-11-23T20:06:46.868Z,6.20
2023-11-23T20:09:18.671Z,6.70
2023-11-23T20:11:47.589Z,5.90
2023-11-23T20:14:15.780Z,8.70
2023-11-23T20:16:44.400Z,8.00
2023-11-23T20:19:12.627Z,6.60
2023-11-23T20:21:40.974Z,7.90
2023-11-23T20:24:10.465Z,6.60
2023-11-23T20:26:39.667Z,7.70
2023-11-23T20:29:08.966Z,7.00
2023-11-23T20:31:38.101Z,7.20
2023-11-23T20:34:07.027Z,14.90
2023-11-23T20:36:36.125Z,12.50
2023-11-23T20:39:05.243Z,8.00
2023-11-23T20:41:33.306Z,8.70
2023-11-23T20:44:03.210Z,5.50
2023-11-23T20:46:34.431Z,6.90
2023-11-23T20:49:05.652Z,6.60
2023-11-23T20:51:35.135Z,7.20
2023-11-23T20:54:05.641Z,7.10
2023-11-23T20:56:34.834Z,6.90
2023-11-23T20:59:05.691Z,5.50
2023-11-23T21:01:34.683Z,4.30
2023-11-23T21:04:05.686Z,7.80
2023-11-23T21:06:35.550Z,11.60
2023-11-23T21:09:05.383Z,14.40
2023-11-23T21:11:33.496Z,11.30
2023-11-23T21:14:02.336Z,16.80
2023-11-23T21:16:30.467Z,11.90
2023-11-23T21:18:58.593Z,12.50
2023-11-23T21:21:26.865Z,6.90
2023-11-23T21:23:55.131Z,7.50
2023-11-23T21:26:23.415Z,5.60
2023-11-23T21:28:51.682Z,5.90
2023-11-23T21:31:19.850Z,7.10
2023-11-23T21:33:48.192Z,9.10
2023-11-23T21:36:16.458Z,8.50
2023-11-23T21:38:44.935Z,8.90
2023-11-23T21:41:16.094Z,8.00
2023-11-23T21:43:45.057Z,6.50
2023-11-23T21:48:48.508Z,3.70
2023-11-23T21:51:28.177Z,4.50
2023-11-23T21:54:00.800Z,5.70
2023-11-23T21:56:28.974Z,4.50
2023-11-23T21:58:57.208Z,3.10
2023-11-23T22:01:25.291Z,4.30
2023-11-23T22:03:54.035Z,6.20
2023-11-23T22:06:22.245Z,5.30
2023-11-23T22:08:50.358Z,7.40
2023-11-23T22:11:18.632Z,5.70
2023-11-23T22:13:47.187Z,5.60
2023-11-23T22:16:15.948Z,5.10
2023-11-23T22:18:45.288Z,6.20
2023-11-23T22:21:14.250Z,5.70
2023-11-23T22:26:12.963Z,6.80
2023-11-23T22:28:41.942Z,5.60
2023-11-23T22:31:13.205Z,6.90
2023-11-23T22:33:43.984Z,5.90
2023-11-23T22:36:13.878Z,4.00
2023-11-23T22:38:43.841Z,7.30
2023-11-23T22:41:13.289Z,5.30
2023-11-23T22:43:43.950Z,5.90
2023-11-23T22:46:14.372Z,7.20
2023-11-23T22:48:43.513Z,7.60
2023-11-23T22:51:11.891Z,9.90
2023-11-23T22:53:40.614Z,6.90
2023-11-23T22:56:11.014Z,5.30
2023-11-23T22:58:41.800Z,6.10
2023-11-23T23:03:40.449Z,5.30
2023-11-23T23:06:13.667Z,6.30
2023-11-23T23:08:41.908Z,5.90
2023-11-23T23:11:11.479Z,6.70
2023-11-23T23:13:40.412Z,5.80
2023-11-23T23:16:08.757Z,6.60
2023-11-23T23:18:37.076Z,9.10
2023-11-23T23:21:06.056Z,8.50
2023-11-23T23:23:36.973Z,7.00
2023-11-23T23:26:05.894Z,7.90
2023-11-23T23:31:02.975Z,7.20
2023-11-23T23:33:34.604Z,6.60
2023-11-23T23:36:05.587Z,8.10
2023-11-23T23:38:34.724Z,6.40
2023-11-23T23:41:03.106Z,7.80
2023-11-23T23:43:33.441Z,6.30
2023-11-23T23:46:02.617Z,7.00
2023-11-23T23:48:32.555Z,9.70
2023-11-23T23:51:05.471Z,8.20
2023-11-23T23:53:34.601Z,7.60
2023-11-23T23:56:02.880Z,5.90
